createdAt,value
2019-03-20T00:00:51.031Z,10.10
2019-03-20T00:03:19.220Z,10.00
2019-03-20T00:05:47.381Z,10.63
2019-03-20T00:08:15.575Z,12.30
2019-03-20T00:10:43.843Z,9.30
2019-03-20T00:13:11.941Z,9.53
2019-03-20T00:15:40.238Z,7.47
2019-03-20T00:18:08.475Z,9.57
2019-03-20T00:20:36.712Z,7.77
2019-03-20T00:23:04.922Z,9.47
2019-03-20T00:25:33.220Z,10.13
2019-03-20T00:28:01.430Z,10.00
2019-03-20T00:30:29.596Z,11.33
2019-03-20T00:32:57.780Z,7.70
2019-03-20T00:35:25.972Z,9.57
2019-03-20T00:37:54.387Z,13.40
2019-03-20T00:40:22.546Z,11.10
2019-03-20T00:42:50.689Z,8.57
2019-03-20T00:45:18.937Z,6.67
2019-03-20T00:47:47.089Z,8.10
2019-03-20T00:50:15.624Z,8.60
2019-03-20T00:52:43.802Z,11.67
2019-03-20T00:55:12.055Z,10.40
2019-03-20T00:57:40.218Z,8.53
2019-03-20T01:00:10.454Z,8.77
2019-03-20T01:02:38.647Z,7.90
2019-03-20T01:05:12.489Z,8.40
2019-03-20T01:07:36.596Z,9.73
2019-03-20T01:10:05.787Z,10.87
2019-03-20T01:12:34.002Z,7.70
2019-03-20T01:15:02.174Z,7.60
2019-03-20T01:17:33.474Z,11.30
2019-03-20T01:20:01.649Z,11.80
2019-03-20T01:22:29.869Z,7.57
2019-03-20T01:24:58.054Z,10.43
2019-03-20T01:27:26.279Z,8.63
2019-03-20T01:29:54.418Z,9.80
2019-03-20T01:32:22.661Z,12.10
2019-03-20T01:34:50.883Z,7.80
2019-03-20T01:37:19.092Z,8.10
2019-03-20T01:39:47.351Z,9.87
2019-03-20T01:42:15.474Z,8.00
2019-03-20T01:44:43.598Z,9.87
2019-03-20T01:47:11.856Z,8.80
2019-03-20T01:49:40.026Z,7.90
2019-03-20T01:52:08.184Z,12.10
2019-03-20T01:54:36.384Z,9.40
2019-03-20T01:57:04.572Z,12.80
2019-03-20T01:59:32.787Z,10.30
2019-03-20T02:02:00.953Z,15.17
2019-03-20T02:04:29.119Z,12.77
2019-03-20T02:06:57.278Z,11.43
2019-03-20T02:09:25.414Z,17.90
2019-03-20T02:11:53.985Z,18.07
2019-03-20T02:14:22.231Z,16.97
2019-03-20T02:16:50.452Z,13.20
2019-03-20T02:19:18.690Z,13.37
2019-03-20T02:21:46.893Z,10.07
2019-03-20T02:24:15.065Z,13.20
2019-03-20T02:26:43.297Z,10.57
2019-03-20T02:29:11.564Z,10.83
2019-03-20T02:31:39.941Z,14.10
2019-03-20T02:34:08.145Z,8.60
2019-03-20T02:36:36.476Z,8.23
2019-03-20T02:39:06.631Z,9.03
2019-03-20T02:41:34.926Z,10.93
2019-03-20T02:44:03.188Z,10.07
2019-03-20T02:46:31.483Z,7.60
2019-03-20T02:48:59.825Z,7.87
2019-03-20T02:51:27.960Z,9.70
2019-03-20T02:53:56.213Z,9.73
2019-03-20T02:56:24.492Z,10.23
2019-03-20T02:58:52.841Z,8.27
2019-03-20T03:01:20.940Z,8.57
2019-03-20T03:03:49.182Z,8.37
2019-03-20T03:06:17.420Z,10.33
2019-03-20T03:08:45.569Z,9.30
2019-03-20T03:11:13.882Z,7.70
2019-03-20T03:13:42.051Z,8.10
2019-03-20T03:16:10.285Z,7.97
2019-03-20T03:18:38.408Z,10.27
2019-03-20T03:21:06.675Z,7.47
2019-03-20T03:23:34.913Z,7.70
2019-03-20T03:26:03.246Z,9.07
2019-03-20T03:28:31.410Z,8.07
2019-03-20T03:30:59.683Z,9.00
2019-03-20T03:33:27.819Z,8.47
2019-03-20T03:35:56.694Z,11.87
2019-03-20T03:38:24.857Z,7.73
2019-03-20T03:40:52.988Z,9.63
2019-03-20T03:43:24.079Z,9.30
2019-03-20T03:45:51.199Z,9.40
2019-03-20T03:48:19.459Z,7.93
2019-03-20T03:50:48.387Z,12.50
2019-03-20T03:53:16.788Z,8.50
2019-03-20T03:55:44.921Z,9.80
2019-03-20T03:58:13.230Z,9.20
2019-03-20T04:00:41.435Z,9.40
2019-03-20T04:03:09.817Z,10.10
2019-03-20T04:05:38.213Z,7.57
2019-03-20T04:08:06.430Z,8.60
2019-03-20T04:10:34.604Z,11.40
2019-03-20T04:13:03.048Z,10.07
2019-03-20T04:15:31.212Z,12.23
2019-03-20T04:17:59.482Z,9.50
2019-03-20T04:20:27.720Z,9.43
2019-03-20T04:22:56.089Z,12.60
2019-03-20T04:25:24.303Z,8.80
2019-03-20T04:27:52.639Z,11.53
2019-03-20T04:30:20.991Z,16.50
2019-03-20T04:32:49.147Z,15.10
2019-03-20T04:35:17.370Z,10.23
2019-03-20T04:37:45.683Z,8.30
2019-03-20T04:40:13.963Z,9.17
2019-03-20T04:42:42.281Z,7.50
2019-03-20T04:45:12.399Z,7.03
2019-03-20T04:47:41.015Z,6.87
2019-03-20T04:50:09.580Z,11.53
2019-03-20T04:52:37.733Z,9.77
2019-03-20T04:55:05.942Z,9.53
2019-03-20T04:57:34.335Z,8.63
2019-03-20T05:00:02.487Z,9.70
2019-03-20T05:02:30.734Z,9.40
2019-03-20T05:04:59.151Z,6.20
2019-03-20T05:07:27.496Z,7.60
2019-03-20T05:09:55.821Z,10.50
2019-03-20T05:12:24.180Z,9.67
2019-03-20T05:14:52.457Z,7.73
2019-03-20T05:17:20.784Z,7.33
2019-03-20T05:19:49.052Z,8.33
2019-03-20T05:22:17.382Z,6.47
2019-03-20T05:24:45.518Z,6.50
2019-03-20T05:27:13.837Z,6.13
2019-03-20T05:29:41.965Z,9.73
2019-03-20T05:32:10.351Z,6.23
2019-03-20T05:34:38.500Z,7.87
2019-03-20T05:37:10.572Z,6.40
2019-03-20T05:39:36.586Z,10.00
2019-03-20T05:42:04.719Z,6.43
2019-03-20T05:44:33.366Z,9.60
2019-03-20T05:47:01.695Z,5.90
2019-03-20T05:49:29.932Z,8.23
2019-03-20T05:51:58.320Z,9.33
2019-03-20T05:54:26.542Z,5.97
2019-03-20T05:56:54.882Z,9.20
2019-03-20T05:59:23.046Z,11.30
2019-03-20T06:01:51.408Z,8.50
2019-03-20T06:04:19.605Z,7.60
2019-03-20T06:06:47.841Z,6.83
2019-03-20T06:09:16.069Z,6.77
2019-03-20T06:11:44.214Z,8.10
2019-03-20T06:14:12.421Z,8.10
2019-03-20T06:16:40.593Z,8.70
2019-03-20T06:19:08.872Z,11.60
2019-03-20T06:21:37.193Z,7.93
2019-03-20T06:24:06.312Z,8.00
2019-03-20T06:26:34.628Z,10.47
2019-03-20T06:29:03.049Z,8.40
2019-03-20T06:31:31.196Z,7.33
2019-03-20T06:33:59.329Z,11.23
2019-03-20T06:36:28.408Z,8.87
2019-03-20T06:38:56.950Z,10.20
2019-03-20T06:41:25.775Z,7.80
2019-03-20T06:43:54.320Z,8.33
2019-03-20T06:46:22.790Z,6.40
2019-03-20T06:48:50.941Z,6.93
2019-03-20T06:51:19.317Z,13.47
2019-03-20T06:53:47.411Z,6.73
2019-03-20T06:56:15.541Z,9.70
2019-03-20T06:58:43.866Z,10.43
2019-03-20T07:01:23.625Z,9.33
2019-03-20T07:04:11.915Z,5.63
2019-03-20T07:06:51.493Z,7.53
2019-03-20T07:09:25.027Z,7.87
2019-03-20T07:11:53.179Z,5.63
2019-03-20T07:14:21.411Z,8.07
2019-03-20T07:16:49.550Z,8.67
2019-03-20T07:19:17.737Z,5.27
2019-03-20T07:21:45.972Z,8.77
2019-03-20T07:24:14.131Z,8.97
2019-03-20T07:26:42.475Z,7.43
2019-03-20T07:29:10.671Z,7.20
2019-03-20T07:31:38.781Z,9.13
2019-03-20T07:34:07.003Z,7.10
2019-03-20T07:36:35.149Z,7.40
2019-03-20T07:39:04.344Z,5.30
2019-03-20T07:41:32.570Z,6.47
2019-03-20T07:44:00.619Z,5.33
2019-03-20T07:46:28.718Z,7.33
2019-03-20T07:48:56.888Z,7.23
2019-03-20T07:51:25.051Z,9.17
2019-03-20T07:53:53.136Z,5.07
2019-03-20T07:56:21.407Z,7.20
2019-03-20T07:58:49.530Z,5.30
2019-03-20T08:01:20.107Z,7.07
2019-03-20T08:03:47.456Z,6.87
2019-03-20T08:06:15.580Z,7.63
2019-03-20T08:08:43.754Z,5.77
2019-03-20T08:11:11.872Z,4.80
2019-03-20T08:13:40.046Z,6.03
2019-03-20T08:16:08.348Z,6.43
2019-03-20T08:18:36.475Z,7.17
2019-03-20T08:21:04.642Z,5.50
2019-03-20T08:23:32.764Z,5.23
2019-03-20T08:26:00.938Z,8.40
2019-03-20T08:28:29.027Z,8.30
2019-03-20T08:30:57.182Z,5.00
2019-03-20T08:33:25.306Z,5.03
2019-03-20T08:35:53.417Z,6.00
2019-03-20T08:38:21.643Z,6.90
2019-03-20T08:40:49.862Z,12.33
2019-03-20T08:43:17.975Z,6.93
2019-03-20T08:45:46.152Z,7.00
2019-03-20T08:48:14.315Z,5.23
2019-03-20T08:50:42.386Z,7.83
2019-03-20T08:53:10.464Z,6.47
2019-03-20T08:55:38.633Z,8.47
2019-03-20T08:58:06.851Z,10.10
2019-03-20T09:00:35.049Z,5.90
2019-03-20T09:03:03.580Z,6.03
2019-03-20T09:05:31.960Z,6.57
2019-03-20T09:08:00.179Z,6.70
2019-03-20T09:10:28.378Z,6.03
2019-03-20T09:12:56.450Z,6.70
2019-03-20T09:15:24.680Z,8.23
2019-03-20T09:17:52.775Z,7.27
2019-03-20T09:20:20.850Z,9.43
2019-03-20T09:22:49.089Z,10.27
2019-03-20T09:25:17.272Z,5.90
2019-03-20T09:27:45.588Z,10.97
2019-03-20T09:30:17.578Z,7.30
2019-03-20T09:32:45.713Z,5.57
2019-03-20T09:35:13.801Z,6.77
2019-03-20T09:37:51.377Z,7.70
2019-03-20T09:40:12.897Z,5.57
2019-03-20T09:42:41.078Z,8.00
2019-03-20T09:45:10.029Z,5.10
2019-03-20T09:47:38.173Z,8.53
2019-03-20T09:50:06.590Z,8.30
2019-03-20T09:52:34.830Z,8.03
2019-03-20T09:55:02.969Z,7.80
2019-03-20T09:57:31.040Z,5.50
2019-03-20T09:59:59.227Z,6.87
2019-03-20T10:02:27.315Z,9.30
2019-03-20T10:04:55.478Z,6.60
2019-03-20T10:07:23.598Z,7.50
2019-03-20T10:09:51.772Z,6.67
2019-03-20T10:12:19.986Z,7.83
2019-03-20T10:14:48.140Z,4.30
2019-03-20T10:17:17.357Z,4.47
2019-03-20T10:19:45.575Z,3.90
2019-03-20T10:22:13.768Z,5.00
2019-03-20T10:24:41.890Z,6.70
2019-03-20T10:27:10.035Z,5.00
2019-03-20T10:29:38.202Z,5.80
2019-03-20T10:32:06.379Z,4.03
2019-03-20T10:34:39.469Z,4.30
2019-03-20T10:37:07.489Z,5.23
2019-03-20T10:39:35.579Z,4.90
2019-03-20T10:42:03.798Z,5.30
2019-03-20T10:44:32.028Z,7.27
2019-03-20T10:47:00.119Z,6.20
2019-03-20T10:49:28.479Z,4.63
2019-03-20T10:51:56.620Z,5.83
2019-03-20T10:54:24.754Z,5.50
2019-03-20T10:56:52.964Z,8.03
2019-03-20T10:59:21.033Z,5.70
2019-03-20T11:01:49.156Z,3.93
2019-03-20T11:04:17.384Z,7.30
2019-03-20T11:06:45.726Z,5.50
2019-03-20T11:09:18.062Z,7.97
2019-03-20T11:11:43.711Z,6.77
2019-03-20T11:14:12.144Z,6.27
2019-03-20T11:16:40.306Z,7.73
2019-03-20T11:19:08.521Z,6.03
2019-03-20T11:21:36.711Z,4.30
2019-03-20T11:24:04.974Z,9.93
2019-03-20T11:26:33.047Z,4.80
2019-03-20T11:29:01.369Z,3.73
2019-03-20T11:31:29.762Z,6.30
2019-03-20T11:33:57.966Z,6.20
2019-03-20T11:36:35.507Z,6.70
2019-03-20T11:39:05.234Z,4.27
2019-03-20T11:41:33.650Z,4.57
2019-03-20T11:44:01.820Z,6.43
2019-03-20T11:46:30.083Z,4.77
2019-03-20T11:48:58.265Z,6.70
2019-03-20T11:51:26.412Z,5.67
2019-03-20T11:53:54.660Z,4.80
2019-03-20T11:56:22.952Z,3.83
2019-03-20T11:58:51.149Z,3.00
2019-03-20T12:01:19.235Z,4.30
2019-03-20T12:03:47.285Z,4.53
2019-03-20T12:06:15.426Z,5.47
2019-03-20T12:08:43.735Z,3.17
2019-03-20T12:11:11.850Z,6.07
2019-03-20T12:13:40.004Z,3.10
2019-03-20T12:16:08.573Z,5.60
2019-03-20T12:18:36.772Z,4.17
2019-03-20T12:21:04.899Z,4.87
2019-03-20T12:23:33.856Z,10.70
2019-03-20T12:26:02.055Z,5.50
2019-03-20T12:28:30.279Z,3.90
2019-03-20T12:30:58.403Z,4.13
2019-03-20T12:33:26.594Z,4.33
2019-03-20T12:35:55.110Z,5.20
2019-03-20T12:38:23.301Z,4.13
2019-03-20T12:40:51.429Z,3.27
2019-03-20T12:43:19.682Z,5.50
2019-03-20T12:45:47.939Z,4.03
2019-03-20T12:48:16.096Z,3.17
2019-03-20T12:50:44.259Z,2.70
2019-03-20T12:53:12.664Z,7.13
2019-03-20T12:55:40.817Z,3.67
2019-03-20T12:58:08.969Z,3.63
2019-03-20T13:00:37.145Z,2.47
2019-03-20T13:03:05.241Z,5.27
2019-03-20T13:05:33.587Z,3.83
2019-03-20T13:08:05.853Z,5.70
2019-03-20T13:10:32.729Z,4.70
2019-03-20T13:13:00.997Z,5.20
2019-03-20T13:15:29.326Z,2.70
2019-03-20T13:17:57.695Z,4.40
2019-03-20T13:20:26.000Z,5.00
2019-03-20T13:22:58.610Z,3.80
2019-03-20T13:25:26.689Z,2.50
2019-03-20T13:27:54.948Z,5.53
2019-03-20T13:30:24.274Z,6.07
2019-03-20T13:32:52.436Z,7.40
2019-03-20T13:35:20.555Z,5.67
2019-03-20T13:37:48.744Z,5.10
2019-03-20T13:40:16.877Z,4.53
2019-03-20T13:42:44.963Z,3.50
2019-03-20T13:45:13.879Z,3.93
2019-03-20T13:47:42.069Z,2.20
2019-03-20T13:50:10.990Z,6.20
2019-03-20T13:52:39.028Z,2.87
2019-03-20T13:55:07.233Z,3.63
2019-03-20T13:57:35.525Z,4.10
2019-03-20T14:00:03.930Z,4.50
2019-03-20T14:02:32.145Z,2.23
2019-03-20T14:05:00.574Z,3.20
2019-03-20T14:07:28.672Z,3.03
2019-03-20T14:09:56.834Z,5.07
2019-03-20T14:12:24.987Z,2.47
2019-03-20T14:14:53.081Z,4.73
2019-03-20T14:17:21.297Z,3.63
2019-03-20T14:19:49.451Z,3.30
2019-03-20T14:22:17.682Z,2.10
2019-03-20T14:24:45.740Z,4.07
2019-03-20T14:27:13.976Z,4.20
2019-03-20T14:29:42.297Z,2.87
2019-03-20T14:32:10.375Z,2.03
2019-03-20T14:34:38.769Z,1.50
2019-03-20T14:37:06.974Z,4.93
2019-03-20T14:39:35.164Z,2.73
2019-03-20T14:42:03.497Z,3.70
2019-03-20T14:44:31.632Z,5.93
2019-03-20T14:46:59.713Z,3.23
2019-03-20T14:49:27.954Z,6.63
2019-03-20T14:51:56.289Z,7.37
2019-03-20T14:54:24.465Z,6.07
2019-03-20T14:56:52.582Z,2.70
2019-03-20T14:59:20.693Z,2.27
2019-03-20T15:01:49.067Z,2.77
2019-03-20T15:04:17.146Z,2.37
2019-03-20T15:06:45.315Z,2.47
2019-03-20T15:09:13.827Z,5.27
2019-03-20T15:11:42.054Z,4.00
2019-03-20T15:14:10.123Z,2.50
2019-03-20T15:16:38.297Z,2.93
2019-03-20T15:19:07.203Z,2.43
2019-03-20T15:21:35.340Z,4.10
2019-03-20T15:24:03.483Z,6.93
2019-03-20T15:26:31.514Z,4.57
2019-03-20T15:28:59.680Z,3.40
2019-03-20T15:31:27.833Z,2.63
2019-03-20T15:33:56.179Z,4.30
2019-03-20T15:36:24.394Z,3.03
2019-03-20T15:38:52.642Z,8.00
2019-03-20T15:41:20.780Z,4.13
2019-03-20T15:43:49.018Z,2.40
2019-03-20T15:46:17.079Z,4.43
2019-03-20T15:48:45.349Z,5.03
2019-03-20T15:51:13.600Z,4.20
2019-03-20T15:53:41.749Z,3.47
2019-03-20T15:56:09.905Z,4.10
2019-03-20T15:58:38.104Z,3.33
2019-03-20T16:01:06.181Z,4.63
2019-03-20T16:03:34.386Z,5.43
2019-03-20T16:06:02.586Z,4.33
2019-03-20T16:08:30.748Z,3.43
2019-03-20T16:11:06.197Z,2.43
2019-03-20T16:13:28.637Z,4.03
2019-03-20T16:15:56.925Z,4.37
2019-03-20T16:18:25.306Z,3.13
2019-03-20T16:20:53.494Z,6.17
2019-03-20T16:23:21.684Z,4.07
2019-03-20T16:25:49.790Z,3.40
2019-03-20T16:28:17.904Z,3.60
2019-03-20T16:30:46.185Z,3.53
2019-03-20T16:33:14.361Z,2.83
2019-03-20T16:35:42.785Z,3.43
2019-03-20T16:38:11.059Z,4.13
2019-03-20T16:40:39.298Z,2.83
2019-03-20T16:43:07.562Z,3.63
2019-03-20T16:45:35.815Z,2.40
2019-03-20T16:48:04.325Z,3.90
2019-03-20T16:50:34.473Z,3.50
2019-03-20T16:53:02.809Z,5.80
2019-03-20T16:55:30.958Z,5.50
2019-03-20T16:57:59.126Z,2.57
2019-03-20T17:00:27.741Z,5.83
2019-03-20T17:02:55.950Z,4.07
2019-03-20T17:05:24.181Z,5.40
2019-03-20T17:07:52.402Z,3.90
2019-03-20T17:10:30.597Z,3.03
2019-03-20T17:12:58.740Z,4.70
2019-03-20T17:15:27.117Z,3.70
2019-03-20T17:17:55.514Z,7.40
2019-03-20T17:20:23.643Z,4.13
2019-03-20T17:22:51.847Z,4.17
2019-03-20T17:25:19.992Z,4.40
2019-03-20T17:27:48.142Z,4.30
2019-03-20T17:30:17.661Z,6.17
2019-03-20T17:32:45.673Z,3.90
2019-03-20T17:35:13.915Z,3.90
2019-03-20T17:37:42.710Z,3.63
2019-03-20T17:40:11.851Z,5.17
2019-03-20T17:42:40.052Z,3.90
2019-03-20T17:45:08.620Z,5.00
2019-03-20T17:47:37.106Z,4.33
2019-03-20T17:50:06.860Z,3.10
2019-03-20T17:52:35.018Z,3.80
2019-03-20T17:55:03.461Z,3.40
2019-03-20T17:57:31.618Z,5.87
2019-03-20T17:59:59.818Z,8.43
2019-03-20T18:02:28.005Z,5.87
2019-03-20T18:04:56.209Z,3.57
2019-03-20T18:07:24.445Z,5.60
2019-03-20T18:09:52.717Z,5.60
2019-03-20T18:12:20.840Z,6.70
2019-03-20T18:14:51.818Z,6.67
2019-03-20T18:17:20.204Z,7.43
2019-03-20T18:19:48.443Z,5.20
2019-03-20T18:22:16.675Z,6.40
2019-03-20T18:24:45.185Z,6.63
2019-03-20T18:27:13.581Z,6.80
2019-03-20T18:29:43.307Z,9.10
2019-03-20T18:32:11.649Z,9.07
2019-03-20T18:34:39.803Z,8.23
2019-03-20T18:37:07.984Z,7.03
2019-03-20T18:39:36.266Z,5.53
2019-03-20T18:42:04.529Z,6.00
2019-03-20T18:44:32.683Z,7.30
2019-03-20T18:47:00.889Z,5.73
2019-03-20T18:49:29.022Z,4.90
2019-03-20T18:51:57.357Z,6.90
2019-03-20T18:54:25.693Z,4.50
2019-03-20T18:56:53.794Z,6.07
2019-03-20T18:59:21.965Z,4.73
2019-03-20T19:01:53.181Z,4.87
2019-03-20T19:04:21.398Z,6.53
2019-03-20T19:06:51.830Z,11.10
2019-03-20T19:09:20.088Z,4.47
2019-03-20T19:11:51.281Z,5.90
2019-03-20T19:14:19.481Z,6.07
2019-03-20T19:16:47.646Z,7.57
2019-03-20T19:19:15.814Z,14.90
2019-03-20T19:21:43.978Z,28.13
2019-03-20T19:24:12.131Z,6.87
2019-03-20T19:26:40.316Z,12.03
2019-03-20T19:29:08.571Z,8.97
2019-03-20T19:31:36.912Z,7.13
2019-03-20T19:34:05.116Z,5.63
2019-03-20T19:36:33.455Z,7.43
2019-03-20T19:39:01.637Z,7.47
2019-03-20T19:41:29.749Z,9.00
2019-03-20T19:43:58.153Z,6.37
2019-03-20T19:46:26.310Z,8.93
2019-03-20T19:48:54.526Z,8.50
2019-03-20T19:51:22.800Z,9.70
2019-03-20T19:53:50.949Z,9.07
2019-03-20T19:56:19.100Z,5.87
2019-03-20T19:58:47.251Z,7.90
2019-03-20T20:01:15.421Z,11.63
2019-03-20T20:03:43.768Z,10.60
2019-03-20T20:06:11.864Z,8.23
2019-03-20T20:08:40.030Z,8.40
2019-03-20T20:11:08.352Z,8.93
2019-03-20T20:13:36.443Z,7.30
2019-03-20T20:16:04.559Z,7.27
2019-03-20T20:18:32.725Z,6.90
2019-03-20T20:21:00.907Z,7.17
2019-03-20T20:23:29.110Z,9.80
2019-03-20T20:25:57.268Z,9.43
2019-03-20T20:28:25.466Z,15.30
2019-03-20T20:30:53.708Z,9.13
2019-03-20T20:33:21.962Z,7.00
2019-03-20T20:35:50.131Z,6.20
2019-03-20T20:38:18.211Z,8.80
2019-03-20T20:40:46.433Z,11.87
2019-03-20T20:43:14.717Z,7.97
2019-03-20T20:45:42.908Z,9.53
2019-03-20T20:48:11.069Z,8.20
2019-03-20T20:50:39.253Z,8.17
2019-03-20T20:53:07.411Z,8.27
2019-03-20T20:55:35.564Z,6.27
2019-03-20T20:58:03.708Z,6.40
2019-03-20T21:00:31.870Z,7.80
2019-03-20T21:03:00.006Z,8.70
2019-03-20T21:05:28.238Z,9.40
2019-03-20T21:07:56.454Z,6.90
2019-03-20T21:10:24.586Z,9.03
2019-03-20T21:12:56.778Z,9.03
2019-03-20T21:15:35.584Z,10.13
2019-03-20T21:18:28.616Z,8.40
2019-03-20T21:20:56.968Z,8.23
2019-03-20T21:23:50.248Z,8.97
2019-03-20T21:26:19.026Z,8.67
2019-03-20T21:29:04.264Z,10.80
2019-03-20T21:31:39.971Z,5.77
2019-03-20T21:34:30.320Z,5.90
2019-03-20T21:37:07.403Z,7.40
2019-03-20T21:39:35.943Z,8.23
2019-03-20T21:42:41.127Z,6.37
2019-03-20T21:45:28.299Z,6.83
2019-03-20T21:47:56.739Z,7.07
2019-03-20T21:50:34.853Z,9.07
2019-03-20T21:53:03.248Z,5.40
2019-03-20T21:55:48.609Z,8.60
2019-03-20T21:58:22.479Z,6.10
2019-03-20T22:01:09.691Z,9.77
2019-03-20T22:03:38.087Z,7.53
2019-03-20T22:06:25.364Z,8.63
2019-03-20T22:08:53.822Z,7.67
2019-03-20T22:11:39.454Z,8.77
2019-03-20T22:14:09.023Z,7.97
2019-03-20T22:17:05.218Z,10.60
2019-03-20T22:20:04.327Z,7.10
2019-03-20T22:22:42.844Z,10.27
2019-03-20T22:25:29.076Z,8.87
2019-03-20T22:28:25.440Z,8.13
2019-03-20T22:30:53.860Z,6.90
2019-03-20T22:33:39.407Z,12.23
2019-03-20T22:36:13.056Z,11.00
2019-03-20T22:39:12.012Z,10.40
2019-03-20T22:41:50.079Z,9.93
2019-03-20T22:44:18.485Z,8.70
2019-03-20T22:47:14.777Z,9.07
2019-03-20T22:50:03.515Z,9.13
2019-03-20T22:52:50.748Z,7.67
2019-03-20T22:55:33.068Z,7.80
2019-03-20T22:58:23.230Z,11.03
2019-03-20T23:00:52.124Z,9.40
2019-03-20T23:03:25.807Z,10.30
2019-03-20T23:05:54.252Z,11.00
2019-03-20T23:08:22.605Z,7.33
2019-03-20T23:10:51.451Z,6.60
2019-03-20T23:13:19.871Z,8.50
2019-03-20T23:15:48.392Z,11.50
2019-03-20T23:18:16.813Z,7.77
2019-03-20T23:20:45.669Z,7.73
2019-03-20T23:23:13.998Z,7.67
2019-03-20T23:25:42.366Z,8.50
2019-03-20T23:28:10.742Z,7.50
2019-03-20T23:30:39.154Z,9.53
2019-03-20T23:33:07.519Z,7.10
2019-03-20T23:35:35.909Z,7.37
2019-03-20T23:38:04.396Z,8.93
2019-03-20T23:40:32.820Z,9.07
2019-03-20T23:43:01.151Z,6.97
2019-03-20T23:45:29.954Z,8.30
2019-03-20T23:48:00.022Z,10.93
2019-03-20T23:50:28.339Z,9.57
2019-03-20T23:52:56.753Z,7.70
2019-03-20T23:55:25.198Z,9.30
2019-03-20T23:57:53.553Z,11.30
